Time;durP1;ratioP1;P1;durP2;ratioP2;P2;SDS_P1;SDS_P2;PMS_P1;PMS_P2;Temp;Humidity;BMP_temperature;BMP_pressure;BME280_temperature;BME280_humidity;BME280_pressure;Samples;Min_cycle;Max_cycle;Signal;HPM_P1;HPM_P2
2020/12/26 00:01:16;;;;;;;26.17;12.63;;;;;;;;;;5067185;28;20403;-78
2020/12/26 00:03:43;;;;;;;19.63;11.95;;;;;;;;;;5063932;28;20454;-78
2020/12/26 00:06:15;;;;;;;22.15;12.75;;;;;;;;;;5070100;28;20517;-78
2020/12/26 00:08:42;;;;;;;22.38;12.25;;;;;;;;;;5060938;28;21005;-78
2020/12/26 00:11:09;;;;;;;25.77;12.88;;;;;;;;;;5052250;28;20483;-78
2020/12/26 00:13:35;;;;;;;20.73;12.02;;;;;;;;;;5055130;28;20415;-78
2020/12/26 00:16:04;;;;;;;25.90;12.87;;;;;;;;;;5047427;28;20405;-78
2020/12/26 00:18:30;;;;;;;21.85;11.93;;;;;;;;;;5055609;28;20966;-78
2020/12/26 00:20:56;;;;;;;21.40;12.33;;;;;;;;;;5074324;28;20483;-78
2020/12/26 00:23:21;;;;;;;27.25;13.32;;;;;;;;;;5041517;28;20453;-78
2020/12/26 00:25:47;;;;;;;23.83;14.23;;;;;;;;;;5056645;28;20393;-77
2020/12/26 00:28:15;;;;;;;29.45;15.18;;;;;;;;;;5072583;28;20519;-79
2020/12/26 00:30:41;;;;;;;28.45;15.32;;;;;;;;;;5056563;28;20974;-78
2020/12/26 00:33:07;;;;;;;28.67;14.82;;;;;;;;;;5055524;28;20922;-79
2020/12/26 00:35:33;;;;;;;29.83;14.93;;;;;;;;;;5056384;28;20379;-78
2020/12/26 00:37:59;;;;;;;25.83;13.85;;;;;;;;;;5046937;28;20791;-78
2020/12/26 00:40:25;;;;;;;23.80;13.15;;;;;;;;;;5073863;28;20403;-78
2020/12/26 00:42:51;;;;;;;23.98;13.85;;;;;;;;;;5064395;28;20464;-78
2020/12/26 00:45:17;;;;;;;25.85;13.32;;;;;;;;;;5055692;28;20391;-79
2020/12/26 00:47:44;;;;;;;20.70;11.55;;;;;;;;;;5073817;28;20407;-78
2020/12/26 00:50:10;;;;;;;27.27;12.68;;;;;;;;;;5073303;28;20394;-78
2020/12/26 00:52:35;;;;;;;21.53;12.20;;;;;;;;;;5041139;28;20482;-78
2020/12/26 00:55:01;;;;;;;25.23;13.32;;;;;;;;;;5050877;28;20394;-79
2020/12/26 00:57:27;;;;;;;26.77;14.50;;;;;;;;;;5055771;28;21098;-79
2020/12/26 00:59:53;;;;;;;25.98;14.65;;;;;;;;;;5055228;28;20396;-78
2020/12/26 01:02:19;;;;;;;25.15;13.82;;;;;;;;;;5054673;28;20395;-78
2020/12/26 01:04:46;;;;;;;20.27;11.75;;;;;;;;;;5055467;28;20384;-78
2020/12/26 01:07:12;;;;;;;23.95;12.30;;;;;;;;;;5073767;28;20386;-79
2020/12/26 01:09:38;;;;;;;19.23;11.80;;;;;;;;;;5070134;28;20482;-78
2020/12/26 01:12:05;;;;;;;20.65;10.90;;;;;;;;;;5049727;28;20390;-78
2020/12/26 01:14:31;;;;;;;22.85;11.45;;;;;;;;;;5049685;28;20827;-78
2020/12/26 01:16:57;;;;;;;19.60;11.30;;;;;;;;;;5066741;28;20492;-78
2020/12/26 01:19:23;;;;;;;21.00;11.30;;;;;;;;;;5063452;28;20399;-78
2020/12/26 01:21:52;;;;;;;19.88;10.88;;;;;;;;;;5072566;28;20399;-78
2020/12/26 01:24:22;;;;;;;20.30;11.65;;;;;;;;;;5051702;28;20476;-78
2020/12/26 01:26:51;;;;;;;20.92;11.40;;;;;;;;;;5071173;28;20395;-78
2020/12/26 01:29:18;;;;;;;18.60;11.50;;;;;;;;;;5052385;28;21162;-79
2020/12/26 01:31:48;;;;;;;24.10;11.75;;;;;;;;;;5055494;28;20794;-79
2020/12/26 01:34:14;;;;;;;24.05;11.27;;;;;;;;;;5054487;28;20817;-78
2020/12/26 01:36:40;;;;;;;19.40;11.27;;;;;;;;;;5041056;28;20464;-78
2020/12/26 01:39:06;;;;;;;22.52;11.00;;;;;;;;;;5049167;28;20393;-78
2020/12/26 01:41:32;;;;;;;22.20;12.00;;;;;;;;;;5053263;28;20381;-78
2020/12/26 01:43:58;;;;;;;17.63;10.40;;;;;;;;;;5048893;28;20393;-79
2020/12/26 01:46:26;;;;;;;22.47;10.50;;;;;;;;;;5046495;28;20383;-79
2020/12/26 01:48:53;;;;;;;17.35;10.88;;;;;;;;;;5054782;28;20465;-78
2020/12/26 01:51:19;;;;;;;21.55;12.07;;;;;;;;;;5034695;28;20458;-79
2020/12/26 01:53:46;;;;;;;20.58;10.43;;;;;;;;;;5032774;28;20424;-78
2020/12/26 01:56:12;;;;;;;16.58;10.77;;;;;;;;;;5045033;28;20383;-78
2020/12/26 01:58:42;;;;;;;17.38;11.10;;;;;;;;;;5047368;28;20423;-79
2020/12/26 02:01:14;;;;;;;21.20;11.30;;;;;;;;;;5016309;28;20446;-78
2020/12/26 02:03:40;;;;;;;18.45;10.75;;;;;;;;;;5018875;28;20466;-79
2020/12/26 02:06:07;;;;;;;19.58;10.43;;;;;;;;;;5033000;28;20563;-79
2020/12/26 02:08:33;;;;;;;18.75;10.65;;;;;;;;;;5044971;28;20390;-78
2020/12/26 02:10:59;;;;;;;19.98;10.98;;;;;;;;;;5036102;28;20407;-78
2020/12/26 02:13:25;;;;;;;16.70;9.70;;;;;;;;;;5031745;28;20430;-79
2020/12/26 02:16:04;;;;;;;16.75;9.63;;;;;;;;;;5034314;28;20398;-78
2020/12/26 02:18:31;;;;;;;17.80;9.10;;;;;;;;;;5032488;28;20371;-78
2020/12/26 02:20:57;;;;;;;18.90;10.40;;;;;;;;;;5047139;28;20496;-79
2020/12/26 02:23:23;;;;;;;17.02;9.93;;;;;;;;;;5029551;28;20492;-78
2020/12/26 02:25:49;;;;;;;16.58;9.77;;;;;;;;;;5033737;28;21252;-79
2020/12/26 02:28:28;;;;;;;14.98;9.60;;;;;;;;;;5032376;28;20390;-79
2020/12/26 02:30:54;;;;;;;19.88;9.52;;;;;;;;;;5036234;28;20910;-79
2020/12/26 02:33:20;;;;;;;17.80;8.65;;;;;;;;;;5047839;28;21212;-79
2020/12/26 02:35:46;;;;;;;19.17;10.00;;;;;;;;;;5033601;28;20389;-79
2020/12/26 02:38:12;;;;;;;16.70;9.18;;;;;;;;;;5052193;28;21095;-79
2020/12/26 02:40:38;;;;;;;19.52;9.27;;;;;;;;;;5051917;28;20378;-79
2020/12/26 02:43:06;;;;;;;17.97;9.50;;;;;;;;;;5047477;28;20489;-79
2020/12/26 02:45:32;;;;;;;17.75;9.68;;;;;;;;;;5020006;28;20452;-79
2020/12/26 02:47:58;;;;;;;17.67;8.95;;;;;;;;;;5057136;28;20403;-79
2020/12/26 02:50:24;;;;;;;16.83;9.33;;;;;;;;;;5044119;28;20403;-79
2020/12/26 02:52:50;;;;;;;13.73;8.18;;;;;;;;;;5052351;28;20404;-79
2020/12/26 02:55:16;;;;;;;13.15;8.50;;;;;;;;;;5053181;28;20499;-79
2020/12/26 02:57:42;;;;;;;15.18;8.27;;;;;;;;;;5053690;28;20401;-79
2020/12/26 03:00:08;;;;;;;13.07;7.97;;;;;;;;;;5063580;28;20378;-79
2020/12/26 03:02:34;;;;;;;15.47;8.27;;;;;;;;;;5077288;28;20381;-79
2020/12/26 03:05:00;;;;;;;14.32;8.27;;;;;;;;;;5040233;28;20375;-79
2020/12/26 03:07:26;;;;;;;17.65;9.75;;;;;;;;;;5043854;28;20384;-78
2020/12/26 03:09:52;;;;;;;14.93;8.35;;;;;;;;;;5053272;28;20411;-79
2020/12/26 03:12:18;;;;;;;14.40;9.32;;;;;;;;;;5070981;28;20913;-80
2020/12/26 03:14:43;;;;;;;17.77;9.43;;;;;;;;;;5071464;28;20830;-79
2020/12/26 03:17:09;;;;;;;18.35;9.43;;;;;;;;;;5071168;28;20396;-79
2020/12/26 03:19:35;;;;;;;18.98;9.80;;;;;;;;;;5070883;28;20401;-79
2020/12/26 03:22:01;;;;;;;16.27;9.85;;;;;;;;;;5053417;28;20438;-79
2020/12/26 03:24:27;;;;;;;15.85;10.35;;;;;;;;;;5051221;28;20384;-79
2020/12/26 03:26:53;;;;;;;21.40;10.82;;;;;;;;;;5071041;28;20388;-79
2020/12/26 03:29:19;;;;;;;17.52;10.38;;;;;;;;;;5075335;28;20406;-79
2020/12/26 03:31:45;;;;;;;18.90;10.73;;;;;;;;;;5044281;28;20453;-79
2020/12/26 03:34:11;;;;;;;17.63;10.73;;;;;;;;;;5051933;28;21019;-79
2020/12/26 03:36:37;;;;;;;18.83;10.45;;;;;;;;;;5070623;28;20720;-79
2020/12/26 03:39:03;;;;;;;18.48;10.65;;;;;;;;;;5044092;28;20434;-78
2020/12/26 03:41:29;;;;;;;18.83;10.75;;;;;;;;;;5049029;28;20405;-79
2020/12/26 03:43:55;;;;;;;17.63;10.57;;;;;;;;;;5051963;28;20419;-79
2020/12/26 03:46:21;;;;;;;19.27;10.60;;;;;;;;;;5052313;28;20386;-79
2020/12/26 03:48:47;;;;;;;16.83;10.48;;;;;;;;;;5072685;28;20405;-79
2020/12/26 03:51:13;;;;;;;18.42;10.52;;;;;;;;;;5069441;28;21038;-79
2020/12/26 03:53:39;;;;;;;15.35;10.52;;;;;;;;;;5052391;28;20482;-78
2020/12/26 03:56:05;;;;;;;16.43;10.57;;;;;;;;;;5048799;28;20905;-79
2020/12/26 03:58:30;;;;;;;18.80;11.13;;;;;;;;;;5048435;28;20887;-79
2020/12/26 04:00:56;;;;;;;20.92;11.15;;;;;;;;;;5069500;28;20467;-79
2020/12/26 04:03:22;;;;;;;16.52;10.85;;;;;;;;;;5063283;28;20887;-79
2020/12/26 04:05:48;;;;;;;15.95;10.88;;;;;;;;;;5060732;28;20852;-79
2020/12/26 04:08:14;;;;;;;15.30;10.50;;;;;;;;;;5047068;28;20396;-79
2020/12/26 04:10:40;;;;;;;17.45;11.05;;;;;;;;;;5070371;28;20435;-79
2020/12/26 04:13:06;;;;;;;16.88;10.80;;;;;;;;;;5071772;28;20417;-79
2020/12/26 04:15:32;;;;;;;16.65;10.20;;;;;;;;;;5049338;28;20390;-79
2020/12/26 04:17:58;;;;;;;17.52;10.18;;;;;;;;;;5071205;28;20375;-79
2020/12/26 04:20:24;;;;;;;16.60;9.97;;;;;;;;;;5055082;28;20473;-79
2020/12/26 04:22:50;;;;;;;16.35;10.00;;;;;;;;;;5079925;28;20402;-79
2020/12/26 04:25:17;;;;;;;14.05;9.73;;;;;;;;;;5047909;28;20412;-79
2020/12/26 04:27:43;;;;;;;14.20;10.00;;;;;;;;;;5052576;28;20391;-79
2020/12/26 04:30:09;;;;;;;17.57;10.10;;;;;;;;;;5052255;28;20398;-79
2020/12/26 04:32:35;;;;;;;14.18;9.05;;;;;;;;;;5051726;28;20419;-79
2020/12/26 04:35:01;;;;;;;15.30;9.82;;;;;;;;;;5049098;28;20396;-79
2020/12/26 04:37:27;;;;;;;15.75;9.85;;;;;;;;;;5070563;28;20391;-79
2020/12/26 04:39:53;;;;;;;13.95;10.30;;;;;;;;;;5052142;28;20939;-79
2020/12/26 04:42:21;;;;;;;17.90;10.30;;;;;;;;;;5050735;28;20540;-79
2020/12/26 04:44:47;;;;;;;14.93;10.35;;;;;;;;;;5078530;28;20410;-79
2020/12/26 04:47:14;;;;;;;17.63;10.37;;;;;;;;;;5052722;28;21931;-79
2020/12/26 04:49:40;;;;;;;12.45;9.90;;;;;;;;;;5051316;28;20399;-79
2020/12/26 04:52:09;;;;;;;16.65;10.27;;;;;;;;;;5053715;28;20410;-79
2020/12/26 04:54:40;;;;;;;19.10;11.05;;;;;;;;;;5068975;28;20437;-78
2020/12/26 04:57:07;;;;;;;16.98;10.82;;;;;;;;;;5065553;28;20383;-79
2020/12/26 04:59:34;;;;;;;15.23;10.80;;;;;;;;;;5073469;28;20405;-80
2020/12/26 05:02:01;;;;;;;15.80;10.85;;;;;;;;;;5076437;28;20386;-79
2020/12/26 05:04:27;;;;;;;15.23;11.45;;;;;;;;;;5090362;28;20390;-79
2020/12/26 05:06:53;;;;;;;14.02;10.23;;;;;;;;;;5074216;28;20704;-79
2020/12/26 05:09:20;;;;;;;18.25;11.90;;;;;;;;;;5057376;28;20388;-79
2020/12/26 05:11:50;;;;;;;17.65;11.45;;;;;;;;;;5060122;28;20419;-79
2020/12/26 05:14:16;;;;;;;15.60;10.57;;;;;;;;;;5055676;28;20558;-79
2020/12/26 05:16:42;;;;;;;17.77;11.37;;;;;;;;;;5076415;28;20831;-79
2020/12/26 05:19:09;;;;;;;17.25;11.55;;;;;;;;;;5063822;28;20386;-79
2020/12/26 05:21:35;;;;;;;15.93;11.02;;;;;;;;;;5058354;28;20941;-79
2020/12/26 05:24:08;;;;;;;16.88;10.82;;;;;;;;;;5066764;28;20429;-79
2020/12/26 05:26:38;;;;;;;18.52;10.43;;;;;;;;;;5052961;28;20449;-79
2020/12/26 05:29:04;;;;;;;12.90;9.77;;;;;;;;;;5055670;28;20925;-79
2020/12/26 05:31:46;;;;;;;20.40;10.90;;;;;;;;;;5054852;28;20428;-79
2020/12/26 05:34:12;;;;;;;18.88;10.82;;;;;;;;;;5056546;28;20925;-79
2020/12/26 05:36:38;;;;;;;16.75;9.68;;;;;;;;;;5055334;28;20399;-79
2020/12/26 05:39:05;;;;;;;19.08;10.10;;;;;;;;;;5055037;28;20400;-79
2020/12/26 05:41:31;;;;;;;15.73;9.80;;;;;;;;;;5073115;28;20989;-79
2020/12/26 05:43:57;;;;;;;14.73;8.53;;;;;;;;;;5059061;28;20464;-79
2020/12/26 05:46:23;;;;;;;15.15;9.15;;;;;;;;;;5055022;28;20904;-79
2020/12/26 05:48:49;;;;;;;15.82;9.18;;;;;;;;;;5068202;28;20412;-79
2020/12/26 05:51:28;;;;;;;16.10;8.45;;;;;;;;;;5054537;28;20396;-79
2020/12/26 05:53:55;;;;;;;14.18;7.82;;;;;;;;;;5066029;28;20951;-79
2020/12/26 05:56:21;;;;;;;12.73;7.05;;;;;;;;;;5060261;28;20417;-79
2020/12/26 05:58:48;;;;;;;13.20;7.10;;;;;;;;;;5059879;28;20423;-79
2020/12/26 06:01:20;;;;;;;14.05;7.05;;;;;;;;;;5057025;28;20392;-79
2020/12/26 06:03:46;;;;;;;11.32;6.35;;;;;;;;;;5062964;28;20575;-79
2020/12/26 06:06:13;;;;;;;11.30;6.00;;;;;;;;;;5055037;28;20478;-79
2020/12/26 06:08:40;;;;;;;13.45;6.15;;;;;;;;;;5065353;28;20445;-79
2020/12/26 06:11:06;;;;;;;11.75;5.70;;;;;;;;;;5071897;28;20767;-79
2020/12/26 06:13:34;;;;;;;9.25;5.13;;;;;;;;;;5051527;28;20766;-79
2020/12/26 06:16:18;;;;;;;10.35;5.80;;;;;;;;;;5071204;28;20430;-79
2020/12/26 06:18:55;;;;;;;12.70;5.80;;;;;;;;;;5069878;28;20519;-79
2020/12/26 06:21:21;;;;;;;11.57;5.50;;;;;;;;;;5071871;28;20555;-79
2020/12/26 06:23:47;;;;;;;14.00;5.85;;;;;;;;;;5052725;28;20514;-79
2020/12/26 06:26:16;;;;;;;14.35;5.30;;;;;;;;;;5054294;28;20446;-79
2020/12/26 06:28:42;;;;;;;13.05;5.15;;;;;;;;;;5057505;28;20522;-79
2020/12/26 06:31:09;;;;;;;11.38;5.07;;;;;;;;;;5057784;28;20893;-78
2020/12/26 06:33:42;;;;;;;10.50;4.72;;;;;;;;;;5050533;28;20420;-79
2020/12/26 06:36:08;;;;;;;15.18;5.22;;;;;;;;;;5052158;28;20429;-79
2020/12/26 06:38:35;;;;;;;12.13;4.45;;;;;;;;;;5051329;28;20458;-79
2020/12/26 06:41:05;;;;;;;9.52;4.70;;;;;;;;;;5051444;28;20414;-79
2020/12/26 06:43:40;;;;;;;16.13;4.85;;;;;;;;;;5054317;28;20452;-79
2020/12/26 06:46:15;;;;;;;9.57;4.05;;;;;;;;;;5065746;28;20516;-79
2020/12/26 06:48:41;;;;;;;12.95;4.75;;;;;;;;;;5072238;28;20480;-79
2020/12/26 06:51:31;;;;;;;9.30;4.10;;;;;;;;;;5086518;28;20862;-79
2020/12/26 06:53:58;;;;;;;10.45;4.45;;;;;;;;;;5074051;28;20457;-79
2020/12/26 06:56:35;;;;;;;10.13;4.43;;;;;;;;;;5086882;28;21034;-79
2020/12/26 06:59:05;;;;;;;10.70;4.93;;;;;;;;;;5049132;28;20438;-79
2020/12/26 07:01:32;;;;;;;11.80;4.63;;;;;;;;;;5055136;28;20488;-79
2020/12/26 07:04:10;;;;;;;9.82;4.60;;;;;;;;;;5056966;28;20420;-79
2020/12/26 07:06:49;;;;;;;11.10;4.47;;;;;;;;;;5087094;28;20816;-79
2020/12/26 07:09:17;;;;;;;10.13;4.38;;;;;;;;;;5057175;28;20381;-79
2020/12/26 07:12:01;;;;;;;9.73;4.10;;;;;;;;;;5054486;28;20468;-79
2020/12/26 07:14:40;;;;;;;9.60;3.88;;;;;;;;;;5071008;28;20807;-79
2020/12/26 07:17:07;;;;;;;10.57;4.30;;;;;;;;;;5040008;28;20934;-79
2020/12/26 07:19:43;;;;;;;8.77;3.95;;;;;;;;;;5053462;28;20380;-79
2020/12/26 07:22:23;;;;;;;10.35;4.28;;;;;;;;;;5054655;28;20976;-79
2020/12/26 07:24:50;;;;;;;11.75;4.10;;;;;;;;;;5051255;28;20548;-79
2020/12/26 07:27:20;;;;;;;10.77;4.40;;;;;;;;;;5071385;28;20402;-79
2020/12/26 07:30:05;;;;;;;9.60;3.83;;;;;;;;;;5053095;28;20431;-79
2020/12/26 07:32:43;;;;;;;10.05;4.10;;;;;;;;;;5043733;28;20466;-79
2020/12/26 07:35:14;;;;;;;11.18;3.95;;;;;;;;;;5075726;28;20445;-79
2020/12/26 07:37:44;;;;;;;11.07;3.70;;;;;;;;;;5064671;28;20401;-79
2020/12/26 07:40:15;;;;;;;10.37;4.13;;;;;;;;;;5071206;28;20395;-79
2020/12/26 07:42:43;;;;;;;9.35;4.20;;;;;;;;;;5080373;28;20432;-78
2020/12/26 07:45:10;;;;;;;9.05;4.00;;;;;;;;;;5080887;28;20409;-79
2020/12/26 07:47:41;;;;;;;11.68;3.85;;;;;;;;;;5081914;28;20414;-79
2020/12/26 07:50:07;;;;;;;9.38;4.28;;;;;;;;;;5053068;28;20436;-79
2020/12/26 07:52:33;;;;;;;8.75;3.92;;;;;;;;;;5072053;28;20414;-80
2020/12/26 07:55:00;;;;;;;9.27;4.30;;;;;;;;;;5069389;28;20379;-79
2020/12/26 07:57:41;;;;;;;8.93;4.32;;;;;;;;;;5050722;28;20412;-79
2020/12/26 08:00:08;;;;;;;9.45;4.43;;;;;;;;;;5056890;28;20439;-79
2020/12/26 08:02:35;;;;;;;10.48;4.75;;;;;;;;;;5077888;28;20395;-79
2020/12/26 08:05:01;;;;;;;10.05;4.70;;;;;;;;;;5055858;28;20398;-79
2020/12/26 08:07:32;;;;;;;11.82;5.05;;;;;;;;;;5069544;28;20390;-79
2020/12/26 08:09:58;;;;;;;12.23;5.25;;;;;;;;;;5052087;28;20439;-79
2020/12/26 08:12:25;;;;;;;10.10;5.55;;;;;;;;;;5052199;28;20416;-79
2020/12/26 08:14:57;;;;;;;14.30;6.15;;;;;;;;;;5069991;28;20791;-78
2020/12/26 08:17:24;;;;;;;12.25;5.68;;;;;;;;;;5052662;28;21128;-79
2020/12/26 08:19:56;;;;;;;12.95;6.13;;;;;;;;;;5053300;28;20415;-79
2020/12/26 08:22:22;;;;;;;13.38;6.75;;;;;;;;;;5090636;28;20501;-79
2020/12/26 08:24:48;;;;;;;14.18;7.00;;;;;;;;;;5056962;28;20412;-79
2020/12/26 08:27:15;;;;;;;17.90;7.00;;;;;;;;;;5070452;28;20410;-79
2020/12/26 08:29:41;;;;;;;13.88;7.60;;;;;;;;;;5070215;28;20523;-78
2020/12/26 08:32:08;;;;;;;16.93;7.33;;;;;;;;;;5051583;28;20530;-79
2020/12/26 08:34:56;;;;;;;15.20;7.75;;;;;;;;;;5056314;28;20460;-79
2020/12/26 08:37:27;;;;;;;12.17;7.77;;;;;;;;;;5041852;28;20462;-79
2020/12/26 08:39:56;;;;;;;12.03;7.47;;;;;;;;;;5059831;28;20494;-79
2020/12/26 08:42:22;;;;;;;13.30;7.43;;;;;;;;;;5077168;28;20448;-79
2020/12/26 08:44:48;;;;;;;14.82;8.30;;;;;;;;;;5065530;28;20395;-79
2020/12/26 08:47:25;;;;;;;16.33;7.93;;;;;;;;;;5056449;28;20470;-79
2020/12/26 08:49:50;;;;;;;19.48;8.85;;;;;;;;;;5055390;28;20547;-79
2020/12/26 08:52:22;;;;;;;13.73;7.95;;;;;;;;;;5055891;28;20459;-79
2020/12/26 08:55:00;;;;;;;14.60;8.27;;;;;;;;;;5051926;28;20432;-79
2020/12/26 08:57:26;;;;;;;17.05;8.60;;;;;;;;;;5074515;28;20455;-79
2020/12/26 08:59:51;;;;;;;20.23;8.73;;;;;;;;;;5073323;28;20402;-79
2020/12/26 09:02:17;;;;;;;14.13;7.80;;;;;;;;;;5055075;28;20396;-79
2020/12/26 09:04:43;;;;;;;13.43;8.13;;;;;;;;;;5073783;28;20426;-79
2020/12/26 09:07:22;;;;;;;16.08;8.80;;;;;;;;;;5059023;28;20371;-79
2020/12/26 09:09:48;;;;;;;15.32;8.30;;;;;;;;;;5059246;28;20897;-80
2020/12/26 09:12:15;;;;;;;13.50;7.75;;;;;;;;;;5058907;28;20390;-78
2020/12/26 09:14:41;;;;;;;16.05;7.85;;;;;;;;;;5060531;28;20382;-79
2020/12/26 09:17:09;;;;;;;19.30;8.07;;;;;;;;;;5053901;28;20388;-79
2020/12/26 09:19:42;;;;;;;15.93;8.00;;;;;;;;;;5072113;28;20445;-79
2020/12/26 09:22:09;;;;;;;16.23;8.20;;;;;;;;;;5041107;28;20431;-79
2020/12/26 09:24:35;;;;;;;15.77;8.60;;;;;;;;;;5070882;28;20409;-79
2020/12/26 09:27:01;;;;;;;14.35;8.65;;;;;;;;;;5053031;28;20391;-79
2020/12/26 09:29:27;;;;;;;15.57;8.10;;;;;;;;;;5065174;28;20407;-79
2020/12/26 09:31:53;;;;;;;15.52;8.40;;;;;;;;;;5066075;28;20423;-79
2020/12/26 09:34:23;;;;;;;15.37;8.60;;;;;;;;;;5054210;28;20422;-78
2020/12/26 09:37:01;;;;;;;15.35;8.60;;;;;;;;;;5051194;28;20940;-80
2020/12/26 09:39:27;;;;;;;15.27;8.43;;;;;;;;;;5079076;28;20401;-79
2020/12/26 09:41:53;;;;;;;16.38;8.65;;;;;;;;;;5062038;28;20402;-79
2020/12/26 09:44:19;;;;;;;16.42;8.52;;;;;;;;;;5054252;28;20406;-78
2020/12/26 09:46:45;;;;;;;13.50;8.17;;;;;;;;;;5054591;28;20450;-79
2020/12/26 09:49:11;;;;;;;14.50;7.68;;;;;;;;;;5086973;28;20399;-80
2020/12/26 09:51:37;;;;;;;20.17;8.68;;;;;;;;;;5054500;28;20933;-79
2020/12/26 09:54:04;;;;;;;16.67;8.65;;;;;;;;;;5044502;28;20440;-79
2020/12/26 09:56:30;;;;;;;17.77;8.68;;;;;;;;;;5076961;28;20753;-79
2020/12/26 09:58:56;;;;;;;16.23;8.75;;;;;;;;;;5057722;28;21067;-79
2020/12/26 10:01:22;;;;;;;14.35;8.25;;;;;;;;;;5057670;28;20883;-79
2020/12/26 10:03:50;;;;;;;16.02;8.18;;;;;;;;;;5059593;28;20407;-79
2020/12/26 10:06:19;;;;;;;14.95;8.55;;;;;;;;;;5070719;28;20451;-79
2020/12/26 10:08:46;;;;;;;19.17;8.70;;;;;;;;;;5060820;28;20442;-79
2020/12/26 10:11:12;;;;;;;13.55;8.45;;;;;;;;;;5048608;28;20390;-79
2020/12/26 10:13:38;;;;;;;15.63;8.23;;;;;;;;;;5053400;28;20416;-78
2020/12/26 10:16:05;;;;;;;14.73;8.55;;;;;;;;;;5053194;28;20395;-78
2020/12/26 10:18:31;;;;;;;12.80;7.65;;;;;;;;;;5073968;28;20462;-78
2020/12/26 10:20:57;;;;;;;17.60;8.43;;;;;;;;;;5055872;28;20989;-79
2020/12/26 10:23:23;;;;;;;16.13;8.60;;;;;;;;;;5051883;28;20395;-79
2020/12/26 10:25:50;;;;;;;15.40;8.53;;;;;;;;;;5057801;28;20825;-78
2020/12/26 10:28:19;;;;;;;13.82;8.70;;;;;;;;;;5055680;28;20397;-78
2020/12/26 10:30:48;;;;;;;14.00;8.13;;;;;;;;;;5057342;28;20848;-79
2020/12/26 10:33:14;;;;;;;15.00;8.13;;;;;;;;;;5055321;28;20439;-78
2020/12/26 10:38:44;;;;;;;15.63;7.93;;;;;;;;;;5068243;28;20480;-78
2020/12/26 10:41:10;;;;;;;14.23;7.78;;;;;;;;;;5054143;28;20403;-79
2020/12/26 10:43:36;;;;;;;14.00;7.85;;;;;;;;;;5070469;28;20414;-78
2020/12/26 10:46:02;;;;;;;13.02;8.05;;;;;;;;;;5052571;28;20399;-79
2020/12/26 10:48:28;;;;;;;17.37;9.00;;;;;;;;;;5052716;28;20502;-79
2020/12/26 10:50:54;;;;;;;13.40;8.00;;;;;;;;;;5053254;28;20396;-79
2020/12/26 10:53:20;;;;;;;15.48;7.78;;;;;;;;;;5051933;28;20408;-79
2020/12/26 10:55:46;;;;;;;16.77;8.07;;;;;;;;;;5044757;28;20408;-78
2020/12/26 10:58:14;;;;;;;15.35;7.00;;;;;;;;;;5070081;28;20378;-78
2020/12/26 11:00:40;;;;;;;15.48;7.55;;;;;;;;;;5071057;28;20792;-78
2020/12/26 11:03:06;;;;;;;15.63;8.03;;;;;;;;;;5074508;28;20370;-78
2020/12/26 11:05:31;;;;;;;13.60;7.60;;;;;;;;;;5059974;28;20381;-78
2020/12/26 11:07:57;;;;;;;13.50;7.78;;;;;;;;;;5052936;28;20407;-78
2020/12/26 11:10:23;;;;;;;15.27;7.38;;;;;;;;;;5052030;28;21175;-79
2020/12/26 11:12:49;;;;;;;14.00;7.40;;;;;;;;;;5053198;28;21033;-79
2020/12/26 11:15:15;;;;;;;13.47;7.00;;;;;;;;;;5075752;28;20405;-79
2020/12/26 11:17:41;;;;;;;13.55;6.70;;;;;;;;;;5066067;28;20390;-78
2020/12/26 11:20:09;;;;;;;14.02;5.97;;;;;;;;;;5050517;28;20372;-79
2020/12/26 11:22:35;;;;;;;13.20;7.03;;;;;;;;;;5064987;28;20440;-79
2020/12/26 11:25:01;;;;;;;14.70;6.70;;;;;;;;;;5063110;28;20424;-78
2020/12/26 11:27:27;;;;;;;11.90;5.97;;;;;;;;;;5058159;28;20402;-78
2020/12/26 11:29:53;;;;;;;13.17;6.50;;;;;;;;;;5052520;28;20459;-79
2020/12/26 11:32:20;;;;;;;12.50;6.60;;;;;;;;;;5049118;28;20378;-78
2020/12/26 11:34:46;;;;;;;12.55;6.13;;;;;;;;;;5051753;28;20394;-79
2020/12/26 11:37:13;;;;;;;12.32;5.63;;;;;;;;;;5073890;28;21060;-79
2020/12/26 11:39:39;;;;;;;11.27;5.60;;;;;;;;;;5069313;28;20490;-79
2020/12/26 11:42:05;;;;;;;12.13;5.80;;;;;;;;;;5083669;28;20469;-79
2020/12/26 11:44:31;;;;;;;12.63;6.07;;;;;;;;;;5073306;28;20474;-79
2020/12/26 11:47:00;;;;;;;9.73;5.80;;;;;;;;;;5053101;28;20484;-78
2020/12/26 11:49:26;;;;;;;9.60;5.25;;;;;;;;;;5051323;28;20452;-78
2020/12/26 11:51:53;;;;;;;11.35;5.78;;;;;;;;;;5051631;28;20939;-78
2020/12/26 11:54:19;;;;;;;10.38;5.15;;;;;;;;;;5068516;28;20414;-79
2020/12/26 11:56:45;;;;;;;11.77;5.00;;;;;;;;;;5043245;28;20833;-79
2020/12/26 11:59:11;;;;;;;10.93;5.18;;;;;;;;;;5079195;28;20431;-79
2020/12/26 12:01:37;;;;;;;9.82;5.20;;;;;;;;;;5070432;28;20823;-79
2020/12/26 12:04:03;;;;;;;10.20;4.73;;;;;;;;;;5076796;28;20720;-79
2020/12/26 12:06:29;;;;;;;8.70;4.75;;;;;;;;;;5054648;28;20408;-78
2020/12/26 12:08:54;;;;;;;12.27;4.70;;;;;;;;;;5055330;28;20402;-79
2020/12/26 12:11:20;;;;;;;9.77;4.70;;;;;;;;;;5074991;28;20457;-78
2020/12/26 12:13:46;;;;;;;11.73;5.28;;;;;;;;;;5051574;28;20427;-79
2020/12/26 12:16:13;;;;;;;11.30;5.28;;;;;;;;;;5048485;28;20866;-78
2020/12/26 12:18:39;;;;;;;11.65;4.85;;;;;;;;;;5051336;28;20429;-79
2020/12/26 12:21:05;;;;;;;13.35;4.70;;;;;;;;;;5052682;28;20404;-79
2020/12/26 12:23:31;;;;;;;11.43;5.13;;;;;;;;;;5069819;28;20410;-78
2020/12/26 12:25:57;;;;;;;10.30;5.03;;;;;;;;;;5061981;28;20453;-78
2020/12/26 12:28:23;;;;;;;12.27;4.55;;;;;;;;;;5049408;28;20608;-79
2020/12/26 12:30:49;;;;;;;9.80;4.88;;;;;;;;;;5070366;28;20492;-78
2020/12/26 12:33:15;;;;;;;10.45;4.63;;;;;;;;;;5070543;28;20406;-79
2020/12/26 12:35:41;;;;;;;13.38;4.95;;;;;;;;;;5052596;28;20384;-79
2020/12/26 12:38:07;;;;;;;11.17;4.57;;;;;;;;;;5052215;28;20424;-78
2020/12/26 12:40:33;;;;;;;11.35;4.60;;;;;;;;;;5070578;28;20399;-78
2020/12/26 12:42:59;;;;;;;9.20;4.47;;;;;;;;;;5079811;28;20378;-79
2020/12/26 12:45:28;;;;;;;8.60;4.35;;;;;;;;;;5074682;28;20371;-79
2020/12/26 12:47:54;;;;;;;10.85;4.82;;;;;;;;;;5070059;28;20396;-79
2020/12/26 12:50:20;;;;;;;8.77;5.07;;;;;;;;;;5070256;28;20909;-79
2020/12/26 12:52:46;;;;;;;12.13;4.95;;;;;;;;;;5053066;28;20467;-79
2020/12/26 12:55:12;;;;;;;11.10;5.07;;;;;;;;;;5060815;28;20777;-79
2020/12/26 12:57:39;;;;;;;11.15;4.88;;;;;;;;;;5046352;28;20391;-79
2020/12/26 13:00:05;;;;;;;12.10;4.95;;;;;;;;;;5070018;28;20758;-79
2020/12/26 13:02:31;;;;;;;13.13;5.05;;;;;;;;;;5052102;28;20740;-79
2020/12/26 13:04:57;;;;;;;9.18;4.45;;;;;;;;;;5055582;28;20378;-79
2020/12/26 13:07:23;;;;;;;8.63;4.43;;;;;;;;;;5061878;28;20380;-79
2020/12/26 13:09:49;;;;;;;14.20;5.65;;;;;;;;;;5051326;28;20380;-79
2020/12/26 13:12:15;;;;;;;8.43;4.30;;;;;;;;;;5050562;28;20408;-78
2020/12/26 13:14:41;;;;;;;10.00;4.78;;;;;;;;;;5052573;28;20399;-78
2020/12/26 13:17:07;;;;;;;10.37;4.90;;;;;;;;;;5090270;28;20405;-79
2020/12/26 13:19:33;;;;;;;17.42;5.25;;;;;;;;;;5061036;28;20383;-79
2020/12/26 13:22:02;;;;;;;11.32;5.20;;;;;;;;;;5059194;28;20382;-78
2020/12/26 13:24:27;;;;;;;8.77;4.57;;;;;;;;;;5074119;28;20431;-78
2020/12/26 13:26:53;;;;;;;11.43;4.82;;;;;;;;;;5058004;28;20391;-79
2020/12/26 13:29:19;;;;;;;9.43;4.87;;;;;;;;;;5082953;28;20466;-79
2020/12/26 13:31:45;;;;;;;15.68;5.10;;;;;;;;;;5079041;28;20435;-79
2020/12/26 13:34:11;;;;;;;15.95;7.35;;;;;;;;;;5086073;28;21110;-78
2020/12/26 13:36:38;;;;;;;19.48;8.95;;;;;;;;;;5055375;28;20387;-79
2020/12/26 13:39:07;;;;;;;16.15;6.80;;;;;;;;;;5055316;28;21055;-78
2020/12/26 13:41:34;;;;;;;11.95;6.00;;;;;;;;;;5054725;28;20388;-79
2020/12/26 13:44:00;;;;;;;13.48;5.68;;;;;;;;;;5055325;28;21052;-79
2020/12/26 13:46:26;;;;;;;15.15;5.97;;;;;;;;;;5083437;28;20413;-79
2020/12/26 13:48:52;;;;;;;10.82;5.90;;;;;;;;;;5076784;28;20403;-78
2020/12/26 13:51:18;;;;;;;7.57;5.03;;;;;;;;;;5055031;28;20933;-79
2020/12/26 13:53:44;;;;;;;8.95;4.93;;;;;;;;;;5053589;28;20412;-78
2020/12/26 13:56:11;;;;;;;10.85;4.93;;;;;;;;;;5056808;28;20441;-79
2020/12/26 13:58:37;;;;;;;10.60;5.88;;;;;;;;;;5060179;28;20382;-79
2020/12/26 14:01:06;;;;;;;11.53;5.70;;;;;;;;;;5060238;28;20994;-79
2020/12/26 14:03:32;;;;;;;10.90;5.80;;;;;;;;;;5072484;28;20409;-78
2020/12/26 14:05:58;;;;;;;12.48;5.65;;;;;;;;;;5072540;28;20491;-79
2020/12/26 14:08:24;;;;;;;12.18;5.82;;;;;;;;;;5077821;28;20385;-79
2020/12/26 14:10:50;;;;;;;12.27;5.60;;;;;;;;;;5063861;28;20399;-79
2020/12/26 14:13:16;;;;;;;12.87;6.13;;;;;;;;;;5054260;28;20474;-79
2020/12/26 14:15:43;;;;;;;8.88;4.95;;;;;;;;;;5054696;28;20399;-79
2020/12/26 14:18:09;;;;;;;9.27;5.47;;;;;;;;;;5077679;28;20384;-79
2020/12/26 14:20:39;;;;;;;19.50;10.50;;;;;;;;;;5085256;28;20367;-79
2020/12/26 14:23:04;;;;;;;27.67;15.82;;;;;;;;;;5053158;28;20458;-79
2020/12/26 14:25:30;;;;;;;14.00;7.63;;;;;;;;;;5078345;28;20786;-79
2020/12/26 14:27:56;;;;;;;10.23;5.45;;;;;;;;;;5080652;28;20684;-78
2020/12/26 14:30:22;;;;;;;7.93;5.53;;;;;;;;;;5080068;28;20745;-78
2020/12/26 14:33:04;;;;;;;10.82;5.72;;;;;;;;;;5054217;28;20863;-79